Startpagina
METAR-TAF:

METAR-TAF

Vliegvelden :

Karachi, Pakistan

breedte: 24-54N, lengte: 067-08E, hoogte: 21 m

Actueel weer

Dit bericht is 24 minuten geleden gemaakt, om 05:55 UTC
Wind 14 kt uit het noordnoordoosten
Temperatuur 24°C
Vochtigheid 24%
Druk 1018 hPa
Zicht: 4000 m
Heiigheid

METAR: OPKC 180555Z 03014KT 4000 HZ NSC 24/02 Q1018 NOSIG

Tijdstip: 11:19 (06:19 UTC)

Verwachting

Dit bericht is 2 uur en het 49 minuten geleden gemaakt, om 03:30 UTC
Verwachting geldig van 18 om 06 UTC tot 18 om 15 UTC
Wind 8 kt uit het noordoosten met uitschieters tot 18 kt
Zicht: 6000 m

TAF: OPKC 180330Z 1806/1815 05008G18KT 6000 NSC

Waarnemingen en weersverwachtingen van meer dan 4000 vliegvelden (METAR en TAF).

De beschikbare stations zijn de gele en rode punten op de kaart.

Ga met uw muis naar het station om de naam te zien.

Klik dan om waarnemingen en weersverwachtingen te zien.

kaart wijzigen: klik op de groene knoppen met een zwart kruis om in te zoomen, op de groene knop met een streepje om uit te zoomen of op de groene pijlen voor aangrenzende kaarten.


METAR-TAF: